Kings Bay, Georgia
Current Conditions -  °F | °C
As of 10:15 AM on Saturday 22 Nov 2014 (Local Time) from KFHB Reporting Station
Overcast Overcast  
Wind Chill: 72°   Ceiling: 3600
Heat Index: 72°   Visibility: 7mi
Dew Point: 63°   Wind: 12mph
Humidity: 73%   Direction: 80°E
Pressure: 30.35"   Gusts: 18mph
Location:  30.77°N, 81.68°W
Report Text: KFHB 221515Z AUTO 08010G16KT 7SM BKN036 OVC044 22/17 A3035 RMK AO1
Loading
Personal Weather Stations






























Interactive Weather Map New forecast layout! Learn more

10-Day Weather Forecast

Advertisements
Track Severe Weather on mobile